sensor_id;sensor_type;location;lat;lon;timestamp;pressure;altitude;pressure_sealevel;temperature;humidity
72900;BME280;61043;52.036;5.566;2022-08-25T00:00:08;101752.22;;;24.85;63.83
72900;BME280;61043;52.036;5.566;2022-08-25T00:02:35;101741.97;;;24.80;64.10
72900;BME280;61043;52.036;5.566;2022-08-25T00:05:03;101755.31;;;24.82;64.06
72900;BME280;61043;52.036;5.566;2022-08-25T00:07:31;101746.03;;;24.76;64.30
72900;BME280;61043;52.036;5.566;2022-08-25T00:09:58;101760.75;;;24.74;64.92
72900;BME280;61043;52.036;5.566;2022-08-25T00:12:25;101749.50;;;24.62;64.88
72900;BME280;61043;52.036;5.566;2022-08-25T00:14:51;101742.56;;;24.51;65.34
72900;BME280;61043;52.036;5.566;2022-08-25T00:17:18;101746.97;;;24.44;65.84
72900;BME280;61043;52.036;5.566;2022-08-25T00:19:45;101730.09;;;24.34;66.07
72900;BME280;61043;52.036;5.566;2022-08-25T00:22:11;101753.44;;;24.35;66.40
72900;BME280;61043;52.036;5.566;2022-08-25T00:24:38;101745.47;;;24.33;66.15
72900;BME280;61043;52.036;5.566;2022-08-25T00:27:05;101740.75;;;24.27;65.64
72900;BME280;61043;52.036;5.566;2022-08-25T00:29:32;101753.78;;;24.32;65.86
72900;BME280;61043;52.036;5.566;2022-08-25T00:31:59;101746.84;;;24.29;65.55
72900;BME280;61043;52.036;5.566;2022-08-25T00:34:29;101736.53;;;24.25;65.51
72900;BME280;61043;52.036;5.566;2022-08-25T00:36:57;101748.88;;;24.27;65.51
72900;BME280;61043;52.036;5.566;2022-08-25T00:39:24;101744.16;;;24.29;65.10
72900;BME280;61043;52.036;5.566;2022-08-25T00:41:54;101744.34;;;24.19;66.62
72900;BME280;61043;52.036;5.566;2022-08-25T00:44:23;101751.78;;;24.17;66.32
72900;BME280;61043;52.036;5.566;2022-08-25T00:46:53;101753.47;;;24.18;65.85
72900;BME280;61043;52.036;5.566;2022-08-25T00:49:28;101753.84;;;24.15;65.93
72900;BME280;61043;52.036;5.566;2022-08-25T00:52:03;101748.06;;;24.02;67.12
72900;BME280;61043;52.036;5.566;2022-08-25T00:54:38;101737.28;;;23.94;66.95
72900;BME280;61043;52.036;5.566;2022-08-25T00:57:08;101748.06;;;24.02;66.73
72900;BME280;61043;52.036;5.566;2022-08-25T00:59:36;101751.47;;;24.04;66.58
72900;BME280;61043;52.036;5.566;2022-08-25T01:02:04;101748.06;;;24.02;66.54
72900;BME280;61043;52.036;5.566;2022-08-25T01:04:35;101743.34;;;23.96;67.16
72900;BME280;61043;52.036;5.566;2022-08-25T01:07:03;101736.28;;;23.95;66.60
72900;BME280;61043;52.036;5.566;2022-08-25T01:09:31;101741.69;;;23.95;67.00
72900;BME280;61043;52.036;5.566;2022-08-25T01:11:59;101745.03;;;23.97;66.48
72900;BME280;61043;52.036;5.566;2022-08-25T01:14:26;101742.19;;;23.98;66.80
72900;BME280;61043;52.036;5.566;2022-08-25T01:16:57;101731.53;;;23.89;67.10
72900;BME280;61043;52.036;5.566;2022-08-25T01:19:26;101702.97;;;23.70;67.50
72900;BME280;61043;52.036;5.566;2022-08-25T01:21:54;101743.19;;;23.81;67.95
72900;BME280;61043;52.036;5.566;2022-08-25T01:26:51;101733.22;;;23.73;67.47
72900;BME280;61043;52.036;5.566;2022-08-25T01:29:17;101734.94;;;23.74;67.13
72900;BME280;61043;52.036;5.566;2022-08-25T01:31:48;101735.56;;;23.68;67.48
72900;BME280;61043;52.036;5.566;2022-08-25T01:34:16;101736.75;;;23.66;67.00
72900;BME280;61043;52.036;5.566;2022-08-25T01:36:44;101732.53;;;23.63;66.72
72900;BME280;61043;52.036;5.566;2022-08-25T01:39:12;101732.38;;;23.65;66.73
72900;BME280;61043;52.036;5.566;2022-08-25T01:41:49;101729.31;;;23.68;66.69
72900;BME280;61043;52.036;5.566;2022-08-25T01:44:19;101723.44;;;23.56;66.65
72900;BME280;61043;52.036;5.566;2022-08-25T01:46:46;101732.38;;;23.57;66.31
72900;BME280;61043;52.036;5.566;2022-08-25T01:49:12;101718.53;;;23.51;66.30
72900;BME280;61043;52.036;5.566;2022-08-25T01:51:47;101715.97;;;23.50;66.80
72900;BME280;61043;52.036;5.566;2022-08-25T01:54:14;101723.44;;;23.48;66.19
72900;BME280;61043;52.036;5.566;2022-08-25T01:56:40;101720.38;;;23.51;66.27
72900;BME280;61043;52.036;5.566;2022-08-25T01:59:07;101733.22;;;23.57;66.12
72900;BME280;61043;52.036;5.566;2022-08-25T02:01:34;101720.53;;;23.58;66.02
72900;BME280;61043;52.036;5.566;2022-08-25T02:04:01;101726.47;;;23.53;66.03
72900;BME280;61043;52.036;5.566;2022-08-25T02:06:30;101724.75;;;23.52;65.86
72900;BME280;61043;52.036;5.566;2022-08-25T02:09:00;101730.00;;;23.53;66.32
72900;BME280;61043;52.036;5.566;2022-08-25T02:11:27;101728.16;;;23.54;65.66
72900;BME280;61043;52.036;5.566;2022-08-25T02:13:54;101724.28;;;23.48;66.41
72900;BME280;61043;52.036;5.566;2022-08-25T02:16:33;101720.19;;;23.52;65.86
72900;BME280;61043;52.036;5.566;2022-08-25T02:19:00;101723.09;;;23.59;65.71
72900;BME280;61043;52.036;5.566;2022-08-25T02:21:27;101732.22;;;23.66;65.31
72900;BME280;61043;52.036;5.566;2022-08-25T02:23:53;101729.84;;;23.71;64.97
72900;BME280;61043;52.036;5.566;2022-08-25T02:26:20;101718.00;;;23.64;65.04
72900;BME280;61043;52.036;5.566;2022-08-25T02:28:49;101718.69;;;23.58;65.22
72900;BME280;61043;52.036;5.566;2022-08-25T02:31:18;101721.38;;;23.50;65.22
72900;BME280;61043;52.036;5.566;2022-08-25T02:33:45;101718.19;;;23.46;65.13
72900;BME280;61043;52.036;5.566;2022-08-25T02:36:12;101701.63;;;23.41;64.38
72900;BME280;61043;52.036;5.566;2022-08-25T02:38:39;101716.16;;;23.48;64.29
72900;BME280;61043;52.036;5.566;2022-08-25T02:41:17;101722.06;;;23.52;64.41
72900;BME280;61043;52.036;5.566;2022-08-25T02:43:46;101713.94;;;23.52;64.04
72900;BME280;61043;52.036;5.566;2022-08-25T02:46:16;101716.50;;;23.53;63.90
72900;BME280;61043;52.036;5.566;2022-08-25T02:48:43;101712.78;;;23.46;63.24
72900;BME280;61043;52.036;5.566;2022-08-25T02:51:10;101711.09;;;23.45;62.95
72900;BME280;61043;52.036;5.566;2022-08-25T02:53:38;101717.84;;;23.41;62.74
72900;BME280;61043;52.036;5.566;2022-08-25T02:56:07;101704.66;;;23.38;62.70
72900;BME280;61043;52.036;5.566;2022-08-25T02:58:36;101720.19;;;23.44;62.28
72900;BME280;61043;52.036;5.566;2022-08-25T03:01:04;101711.41;;;23.42;62.41
72900;BME280;61043;52.036;5.566;2022-08-25T03:03:31;101712.09;;;23.44;62.13
72900;BME280;61043;52.036;5.566;2022-08-25T03:06:08;101682.53;;;23.26;62.09
72900;BME280;61043;52.036;5.566;2022-08-25T03:08:36;101711.09;;;23.45;61.52
72900;BME280;61043;52.036;5.566;2022-08-25T03:11:03;101706.34;;;23.47;61.50
72900;BME280;61043;52.036;5.566;2022-08-25T03:13:31;101704.50;;;23.48;60.96
72900;BME280;61043;52.036;5.566;2022-08-25T03:16:01;101672.41;;;23.20;60.00
72900;BME280;61043;52.036;5.566;2022-08-25T03:18:30;101692.00;;;23.30;60.38
72900;BME280;61043;52.036;5.566;2022-08-25T03:20:57;101688.94;;;23.25;60.22
72900;BME280;61043;52.036;5.566;2022-08-25T03:23:24;101681.84;;;23.16;59.91
72900;BME280;61043;52.036;5.566;2022-08-25T03:25:55;101684.19;;;23.11;59.10
72900;BME280;61043;52.036;5.566;2022-08-25T03:28:40;101682.88;;;23.15;60.22
72900;BME280;61043;52.036;5.566;2022-08-25T03:31:07;101681.50;;;23.11;59.53
72900;BME280;61043;52.036;5.566;2022-08-25T03:33:35;101676.97;;;23.11;59.91
72900;BME280;61043;52.036;5.566;2022-08-25T03:36:02;101681.69;;;23.09;58.80
72900;BME280;61043;52.036;5.566;2022-08-25T03:38:29;101672.53;;;23.02;59.02
72900;BME280;61043;52.036;5.566;2022-08-25T03:40:55;101674.38;;;22.94;58.20
72900;BME280;61043;52.036;5.566;2022-08-25T03:43:22;101661.34;;;22.89;58.75
72900;BME280;61043;52.036;5.566;2022-08-25T03:45:50;101664.41;;;22.86;58.46
72900;BME280;61043;52.036;5.566;2022-08-25T03:48:17;101669.59;;;22.87;57.96
72900;BME280;61043;52.036;5.566;2022-08-25T03:50:48;101663.88;;;22.82;58.01
72900;BME280;61043;52.036;5.566;2022-08-25T03:53:18;101665.38;;;22.85;58.23
72900;BME280;61043;52.036;5.566;2022-08-25T03:55:46;101663.34;;;22.79;57.29
72900;BME280;61043;52.036;5.566;2022-08-25T03:58:13;101659.81;;;22.78;58.40
72900;BME280;61043;52.036;5.566;2022-08-25T04:00:39;101660.81;;;22.77;58.89
72900;BME280;61043;52.036;5.566;2022-08-25T04:03:06;101651.88;;;22.77;58.54
72900;BME280;61043;52.036;5.566;2022-08-25T04:05:33;101650.84;;;22.69;57.79
72900;BME280;61043;52.036;5.566;2022-08-25T04:08:00;101662.53;;;22.78;58.88
72900;BME280;61043;52.036;5.566;2022-08-25T04:10:28;101646.81;;;22.74;59.35
72900;BME280;61043;52.036;5.566;2022-08-25T04:12:54;101651.38;;;22.73;59.22
72900;BME280;61043;52.036;5.566;2022-08-25T04:15:21;101652.06;;;22.75;58.89
72900;BME280;61043;52.036;5.566;2022-08-25T04:17:56;101657.47;;;22.75;58.85
72900;BME280;61043;52.036;5.566;2022-08-25T04:20:24;101649.84;;;22.71;58.73
72900;BME280;61043;52.036;5.566;2022-08-25T04:22:51;101637.31;;;22.61;58.69
72900;BME280;61043;52.036;5.566;2022-08-25T04:25:18;101639.19;;;22.69;59.29
72900;BME280;61043;52.036;5.566;2022-08-25T04:27:44;101640.03;;;22.69;59.58
72900;BME280;61043;52.036;5.566;2022-08-25T04:30:11;101616.75;;;22.52;59.27
72900;BME280;61043;52.036;5.566;2022-08-25T04:32:38;101614.19;;;22.51;59.52
72900;BME280;61043;52.036;5.566;2022-08-25T04:35:05;101639.19;;;22.61;59.51
72900;BME280;61043;52.036;5.566;2022-08-25T04:37:32;101635.97;;;22.57;59.70
72900;BME280;61043;52.036;5.566;2022-08-25T04:40:00;101605.88;;;22.36;59.58
72900;BME280;61043;52.036;5.566;2022-08-25T04:42:26;101639.50;;;22.50;59.54
72900;BME280;61043;52.036;5.566;2022-08-25T04:44:53;101647.25;;;22.53;59.77
72900;BME280;61043;52.036;5.566;2022-08-25T04:47:20;101632.72;;;22.45;59.92
72900;BME280;61043;52.036;5.566;2022-08-25T04:49:46;101638.81;;;22.48;59.85
72900;BME280;61043;52.036;5.566;2022-08-25T04:52:13;101641.50;;;22.48;59.79
72900;BME280;61043;52.036;5.566;2022-08-25T04:54:40;101650.13;;;22.51;59.88
72900;BME280;61043;52.036;5.566;2022-08-25T04:57:07;101642.19;;;22.50;59.62
72900;BME280;61043;52.036;5.566;2022-08-25T04:59:34;101649.44;;;22.49;59.72
72900;BME280;61043;52.036;5.566;2022-08-25T05:02:01;101645.19;;;22.38;60.27
72900;BME280;61043;52.036;5.566;2022-08-25T05:04:29;101653.63;;;22.43;59.89
72900;BME280;61043;52.036;5.566;2022-08-25T05:06:59;101648.78;;;22.47;60.14
72900;BME280;61043;52.036;5.566;2022-08-25T05:09:26;101617.81;;;22.25;59.98
72900;BME280;61043;52.036;5.566;2022-08-25T05:11:53;101642.66;;;22.37;60.21
72900;BME280;61043;52.036;5.566;2022-08-25T05:14:21;101642.50;;;22.46;60.17
72900;BME280;61043;52.036;5.566;2022-08-25T05:16:52;101646.22;;;22.45;59.73
72900;BME280;61043;52.036;5.566;2022-08-25T05:19:19;101636.78;;;22.41;60.14
72900;BME280;61043;52.036;5.566;2022-08-25T05:21:45;101661.25;;;22.56;59.79
72900;BME280;61043;52.036;5.566;2022-08-25T05:24:12;101650.13;;;22.51;60.45
72900;BME280;61043;52.036;5.566;2022-08-25T05:26:40;101661.44;;;22.55;60.30
72900;BME280;61043;52.036;5.566;2022-08-25T05:29:07;101661.94;;;22.58;60.45
72900;BME280;61043;52.036;5.566;2022-08-25T05:31:36;101631.69;;;22.38;60.18
72900;BME280;61043;52.036;5.566;2022-08-25T05:34:09;101661.25;;;22.56;60.31
72900;BME280;61043;52.036;5.566;2022-08-25T05:36:37;101648.59;;;22.57;59.68
72900;BME280;61043;52.036;5.566;2022-08-25T05:39:10;101673.59;;;22.67;59.42
72900;BME280;61043;52.036;5.566;2022-08-25T05:41:37;101664.53;;;22.68;59.08
72900;BME280;61043;52.036;5.566;2022-08-25T05:44:04;101669.59;;;22.79;59.47
72900;BME280;61043;52.036;5.566;2022-08-25T05:46:31;101682.44;;;22.85;59.33
72900;BME280;61043;52.036;5.566;2022-08-25T05:48:58;101662.19;;;22.81;58.62
72900;BME280;61043;52.036;5.566;2022-08-25T05:51:25;101673.34;;;22.95;57.86
72900;BME280;61043;52.036;5.566;2022-08-25T05:53:52;101673.66;;;22.83;56.75
72900;BME280;61043;52.036;5.566;2022-08-25T05:56:19;101679.09;;;22.92;56.17
72900;BME280;61043;52.036;5.566;2022-08-25T05:58:46;101669.81;;;22.94;56.00
72900;BME280;61043;52.036;5.566;2022-08-25T06:01:27;101667.31;;;23.01;55.30
72900;BME280;61043;52.036;5.566;2022-08-25T06:04:14;101670.38;;;23.14;55.04
72900;BME280;61043;52.036;5.566;2022-08-25T06:06:41;101669.69;;;23.28;54.71
72900;BME280;61043;52.036;5.566;2022-08-25T06:09:08;101672.56;;;23.43;54.02
72900;BME280;61043;52.036;5.566;2022-08-25T06:11:36;101677.47;;;23.56;53.81
72900;BME280;61043;52.036;5.566;2022-08-25T06:14:06;101674.63;;;23.74;53.16
72900;BME280;61043;52.036;5.566;2022-08-25T06:16:34;101682.00;;;23.88;53.20
72900;BME280;61043;52.036;5.566;2022-08-25T06:19:01;101663.41;;;23.93;52.85
72900;BME280;61043;52.036;5.566;2022-08-25T06:21:27;101679.41;;;24.11;52.59
72900;BME280;61043;52.036;5.566;2022-08-25T06:23:54;101678.88;;;24.24;51.89
72900;BME280;61043;52.036;5.566;2022-08-25T06:26:21;101701.63;;;24.46;51.69
72900;BME280;61043;52.036;5.566;2022-08-25T06:28:49;101693.16;;;24.57;51.19
72900;BME280;61043;52.036;5.566;2022-08-25T06:31:17;101682.09;;;24.67;51.18
72900;BME280;61043;52.036;5.566;2022-08-25T06:33:45;101671.91;;;24.69;50.35
72900;BME280;61043;52.036;5.566;2022-08-25T06:36:11;101684.53;;;24.85;50.60
72900;BME280;61043;52.036;5.566;2022-08-25T06:38:38;101675.91;;;24.81;49.91
72900;BME280;61043;52.036;5.566;2022-08-25T06:41:06;101687.84;;;24.95;49.85
72900;BME280;61043;52.036;5.566;2022-08-25T06:43:33;101679.38;;;24.98;49.23
72900;BME280;61043;52.036;5.566;2022-08-25T06:46:14;101687.09;;;25.10;49.42
72900;BME280;61043;52.036;5.566;2022-08-25T06:48:41;101678.47;;;25.06;49.07
72900;BME280;61043;52.036;5.566;2022-08-25T06:51:12;101680.09;;;25.15;48.95
72900;BME280;61043;52.036;5.566;2022-08-25T06:53:40;101664.34;;;25.19;48.88
72900;BME280;61043;52.036;5.566;2022-08-25T06:56:11;101670.06;;;25.24;48.54
72900;BME280;61043;52.036;5.566;2022-08-25T06:58:38;101672.44;;;25.42;48.48
72900;BME280;61043;52.036;5.566;2022-08-25T07:01:11;101673.53;;;25.56;48.33
72900;BME280;61043;52.036;5.566;2022-08-25T07:03:46;101669.91;;;25.63;47.96
72900;BME280;61043;52.036;5.566;2022-08-25T07:06:14;101666.91;;;25.73;47.39
72900;BME280;61043;52.036;5.566;2022-08-25T07:08:43;101664.41;;;25.86;46.45
72900;BME280;61043;52.036;5.566;2022-08-25T07:11:10;101671.00;;;25.92;46.45
72900;BME280;61043;52.036;5.566;2022-08-25T07:13:43;101664.06;;;26.04;46.54
72900;BME280;61043;52.036;5.566;2022-08-25T07:16:11;101660.69;;;26.17;46.52
72900;BME280;61043;52.036;5.566;2022-08-25T07:18:38;101668.09;;;26.23;45.93
72900;BME280;61043;52.036;5.566;2022-08-25T07:21:05;101670.44;;;26.26;45.67
72900;BME280;61043;52.036;5.566;2022-08-25T07:23:34;101667.59;;;26.20;45.69
72900;BME280;61043;52.036;5.566;2022-08-25T07:28:53;101681.19;;;26.34;45.86
72900;BME280;61043;52.036;5.566;2022-08-25T07:31:20;101668.31;;;26.43;45.47
72900;BME280;61043;52.036;5.566;2022-08-25T07:33:52;101669.53;;;26.41;44.98
72900;BME280;61043;52.036;5.566;2022-08-25T07:36:38;101672.09;;;26.57;45.20
72900;BME280;61043;52.036;5.566;2022-08-25T07:39:05;101659.16;;;26.59;44.88
72900;BME280;61043;52.036;5.566;2022-08-25T07:41:36;101676.75;;;26.63;44.99
72900;BME280;61043;52.036;5.566;2022-08-25T07:44:04;101672.25;;;26.70;44.55
72900;BME280;61043;52.036;5.566;2022-08-25T07:46:31;101674.31;;;26.68;44.32
72900;BME280;61043;52.036;5.566;2022-08-25T07:48:59;101666.19;;;26.53;44.37
72900;BME280;61043;52.036;5.566;2022-08-25T07:51:25;101669.94;;;26.67;44.89
72900;BME280;61043;52.036;5.566;2022-08-25T07:53:52;101675.69;;;26.79;44.21
72900;BME280;61043;52.036;5.566;2022-08-25T07:56:19;101671.03;;;26.94;43.80
72900;BME280;61043;52.036;5.566;2022-08-25T07:58:46;101674.72;;;27.08;43.88
72900;BME280;61043;52.036;5.566;2022-08-25T08:01:16;101676.31;;;27.17;43.95
72900;BME280;61043;52.036;5.566;2022-08-25T08:03:44;101671.16;;;27.22;44.04
72900;BME280;61043;52.036;5.566;2022-08-25T08:06:21;101677.53;;;27.36;43.54
72900;BME280;61043;52.036;5.566;2022-08-25T08:08:50;101673.03;;;27.22;43.58
72900;BME280;61043;52.036;5.566;2022-08-25T08:11:26;101656.72;;;27.22;43.71
72900;BME280;61043;52.036;5.566;2022-08-25T08:13:53;101673.25;;;27.49;43.28
72900;BME280;61043;52.036;5.566;2022-08-25T08:16:22;101650.66;;;27.48;42.95
72900;BME280;61043;52.036;5.566;2022-08-25T08:18:49;101657.72;;;27.71;43.05
72900;BME280;61043;52.036;5.566;2022-08-25T08:21:19;101661.31;;;27.78;42.54
72900;BME280;61043;52.036;5.566;2022-08-25T08:23:47;101640.06;;;27.88;42.47
72900;BME280;61043;52.036;5.566;2022-08-25T08:26:15;101645.59;;;28.01;42.39
72900;BME280;61043;52.036;5.566;2022-08-25T08:28:42;101643.56;;;28.10;41.98
72900;BME280;61043;52.036;5.566;2022-08-25T08:31:08;101633.63;;;27.96;41.76
72900;BME280;61043;52.036;5.566;2022-08-25T08:33:36;101654.94;;;28.27;41.83
72900;BME280;61043;52.036;5.566;2022-08-25T08:36:07;101648.56;;;28.48;41.40
72900;BME280;61043;52.036;5.566;2022-08-25T08:38:35;101630.53;;;28.47;41.11
72900;BME280;61043;52.036;5.566;2022-08-25T08:55:30;101631.53;;;29.07;40.03
72900;BME280;61043;52.036;5.566;2022-08-25T08:57:59;101635.28;;;29.26;39.52
72900;BME280;61043;52.036;5.566;2022-08-25T09:00:30;101620.84;;;29.32;39.48
72900;BME280;61043;52.036;5.566;2022-08-25T09:03:09;101619.16;;;29.45;39.17
72900;BME280;61043;52.036;5.566;2022-08-25T09:05:44;101629.41;;;29.49;38.87
72900;BME280;61043;52.036;5.566;2022-08-25T09:08:14;101622.50;;;29.53;38.89
72900;BME280;61043;52.036;5.566;2022-08-25T09:14:01;101623.34;;;29.67;38.53
72900;BME280;61043;52.036;5.566;2022-08-25T09:16:54;101627.94;;;29.60;39.10
72900;BME280;61043;52.036;5.566;2022-08-25T09:19:46;101621.66;;;29.66;38.72
72900;BME280;61043;52.036;5.566;2022-08-25T09:25:20;101628.69;;;30.07;37.80
72900;BME280;61043;52.036;5.566;2022-08-25T09:28:10;101632.91;;;30.03;37.18
72900;BME280;61043;52.036;5.566;2022-08-25T09:33:42;101628.81;;;30.39;36.81
72900;BME280;61043;52.036;5.566;2022-08-25T09:36:08;101622.16;;;30.60;37.35
72900;BME280;61043;52.036;5.566;2022-08-25T09:38:35;101611.50;;;30.52;36.77
72900;BME280;61043;52.036;5.566;2022-08-25T09:41:04;101620.44;;;30.65;36.29
72900;BME280;61043;52.036;5.566;2022-08-25T09:43:34;101616.38;;;30.81;36.18
72900;BME280;61043;52.036;5.566;2022-08-25T09:46:12;101610.31;;;31.04;36.17
72900;BME280;61043;52.036;5.566;2022-08-25T09:48:50;101610.28;;;31.11;35.35
72900;BME280;61043;52.036;5.566;2022-08-25T09:51:36;101613.91;;;31.30;36.19
72900;BME280;61043;52.036;5.566;2022-08-25T09:56:58;101612.63;;;31.58;35.48
72900;BME280;61043;52.036;5.566;2022-08-25T09:59:32;101590.28;;;31.61;34.87
72900;BME280;61043;52.036;5.566;2022-08-25T10:02:22;101597.72;;;31.72;33.93
72900;BME280;61043;52.036;5.566;2022-08-25T10:04:51;101591.56;;;31.76;33.63
72900;BME280;61043;52.036;5.566;2022-08-25T10:07:52;101596.28;;;31.88;33.94
72900;BME280;61043;52.036;5.566;2022-08-25T10:10:27;101584.19;;;31.95;34.07
72900;BME280;61043;52.036;5.566;2022-08-25T10:12:58;101585.19;;;32.01;34.16
72900;BME280;61043;52.036;5.566;2022-08-25T10:15:32;101579.91;;;32.18;33.65
72900;BME280;61043;52.036;5.566;2022-08-25T10:18:23;101588.44;;;32.28;33.57
72900;BME280;61043;52.036;5.566;2022-08-25T10:21:10;101576.91;;;32.38;33.64
72900;BME280;61043;52.036;5.566;2022-08-25T10:23:41;101573.75;;;32.53;33.42
72900;BME280;61043;52.036;5.566;2022-08-25T10:29:24;101565.13;;;32.79;32.81
72900;BME280;61043;52.036;5.566;2022-08-25T10:32:08;101563.50;;;33.02;32.80
72900;BME280;61043;52.036;5.566;2022-08-25T10:34:53;101558.53;;;33.11;31.61
72900;BME280;61043;52.036;5.566;2022-08-25T10:46:29;101536.44;;;33.17;29.83
72900;BME280;61043;52.036;5.566;2022-08-25T10:49:04;101538.09;;;33.30;30.13
72900;BME280;61043;52.036;5.566;2022-08-25T10:51:54;101534.38;;;33.01;28.55
72900;BME280;61043;52.036;5.566;2022-08-25T10:57:34;101524.72;;;33.34;29.21
72900;BME280;61043;52.036;5.566;2022-08-25T11:00:09;101516.97;;;33.31;28.86
72900;BME280;61043;52.036;5.566;2022-08-25T11:05:39;101522.94;;;33.63;28.59
72900;BME280;61043;52.036;5.566;2022-08-25T11:08:41;101521.56;;;33.77;29.27
72900;BME280;61043;52.036;5.566;2022-08-25T11:14:02;101514.13;;;33.89;28.52
72900;BME280;61043;52.036;5.566;2022-08-25T11:16:57;101514.22;;;33.94;27.66
72900;BME280;61043;52.036;5.566;2022-08-25T11:19:36;101514.91;;;34.02;27.21
72900;BME280;61043;52.036;5.566;2022-08-25T11:22:34;101503.88;;;34.13;27.06
72900;BME280;61043;52.036;5.566;2022-08-25T11:25:25;101502.69;;;34.38;27.13
72900;BME280;61043;52.036;5.566;2022-08-25T11:27:59;101503.44;;;34.33;27.43
72900;BME280;61043;52.036;5.566;2022-08-25T11:30:28;101488.78;;;34.28;27.19
72900;BME280;61043;52.036;5.566;2022-08-25T11:32:56;101495.25;;;34.22;26.06
72900;BME280;61043;52.036;5.566;2022-08-25T11:35:33;101487.94;;;34.27;25.70
72900;BME280;61043;52.036;5.566;2022-08-25T11:51:59;101461.81;;;34.58;26.09
72900;BME280;61043;52.036;5.566;2022-08-25T11:54:48;101466.63;;;34.68;26.29
72900;BME280;61043;52.036;5.566;2022-08-25T12:02:43;101460.94;;;34.92;26.25
72900;BME280;61043;52.036;5.566;2022-08-25T12:13:49;101454.44;;;34.81;25.70
72900;BME280;61043;52.036;5.566;2022-08-25T12:16:41;101459.66;;;34.99;26.60
72900;BME280;61043;52.036;5.566;2022-08-25T12:27:56;101457.06;;;35.27;26.33
72900;BME280;61043;52.036;5.566;2022-08-25T12:30:46;101459.41;;;35.01;25.14
72900;BME280;61043;52.036;5.566;2022-08-25T12:33:34;101453.78;;;34.40;25.52
72900;BME280;61043;52.036;5.566;2022-08-25T12:36:09;101451.06;;;34.40;25.74
72900;BME280;61043;52.036;5.566;2022-08-25T12:38:46;101444.78;;;34.45;25.82
72900;BME280;61043;52.036;5.566;2022-08-25T12:41:23;101440.66;;;34.59;25.76
72900;BME280;61043;52.036;5.566;2022-08-25T12:43:53;101450.22;;;34.73;25.75
72900;BME280;61043;52.036;5.566;2022-08-25T12:46:37;101444.63;;;34.85;25.23
72900;BME280;61043;52.036;5.566;2022-08-25T12:49:14;101437.56;;;35.11;24.51
72900;BME280;61043;52.036;5.566;2022-08-25T12:52:18;101441.13;;;35.29;25.66
72900;BME280;61043;52.036;5.566;2022-08-25T12:54:54;101435.53;;;35.45;25.41
72900;BME280;61043;52.036;5.566;2022-08-25T13:00:16;101439.47;;;35.77;24.71
72900;BME280;61043;52.036;5.566;2022-08-25T13:03:08;101434.78;;;35.77;24.60
72900;BME280;61043;52.036;5.566;2022-08-25T13:06:13;101428.31;;;35.88;24.41
72900;BME280;61043;52.036;5.566;2022-08-25T13:12:13;101430.59;;;35.97;23.99
72900;BME280;61043;52.036;5.566;2022-08-25T13:14:42;101424.94;;;36.08;23.69
72900;BME280;61043;52.036;5.566;2022-08-25T13:17:10;101426.91;;;36.13;23.30
72900;BME280;61043;52.036;5.566;2022-08-25T13:19:49;101418.38;;;36.15;24.28
72900;BME280;61043;52.036;5.566;2022-08-25T13:22:17;101411.19;;;36.14;25.50
72900;BME280;61043;52.036;5.566;2022-08-25T13:24:48;101404.72;;;36.30;24.52
72900;BME280;61043;52.036;5.566;2022-08-25T13:27:26;101410.78;;;36.27;23.42
72900;BME280;61043;52.036;5.566;2022-08-25T13:29:56;101407.00;;;36.38;23.04
72900;BME280;61043;52.036;5.566;2022-08-25T13:32:27;101374.38;;;36.25;23.50
72900;BME280;61043;52.036;5.566;2022-08-25T13:35:17;101401.84;;;36.52;22.96
72900;BME280;61043;52.036;5.566;2022-08-25T13:37:46;101390.91;;;36.25;22.67
72900;BME280;61043;52.036;5.566;2022-08-25T13:40:22;101398.41;;;36.29;24.10
72900;BME280;61043;52.036;5.566;2022-08-25T13:42:54;101383.09;;;36.12;23.22
72900;BME280;61043;52.036;5.566;2022-08-25T13:45:28;101389.81;;;36.26;24.00
72900;BME280;61043;52.036;5.566;2022-08-25T13:47:57;101392.47;;;36.16;22.99
72900;BME280;61043;52.036;5.566;2022-08-25T13:52:57;101393.31;;;35.62;23.73
72900;BME280;61043;52.036;5.566;2022-08-25T13:55:35;101389.00;;;35.71;23.58
72900;BME280;61043;52.036;5.566;2022-08-25T13:58:25;101380.69;;;35.93;25.64
72900;BME280;61043;52.036;5.566;2022-08-25T14:01:23;101372.88;;;36.12;24.69
72900;BME280;61043;52.036;5.566;2022-08-25T14:04:24;101370.84;;;36.02;23.49
72900;BME280;61043;52.036;5.566;2022-08-25T14:07:15;101371.81;;;36.18;23.48
72900;BME280;61043;52.036;5.566;2022-08-25T14:12:40;101373.75;;;36.55;23.79
72900;BME280;61043;52.036;5.566;2022-08-25T14:15:26;101365.31;;;36.72;23.09
72900;BME280;61043;52.036;5.566;2022-08-25T14:18:07;101365.94;;;36.84;22.49
72900;BME280;61043;52.036;5.566;2022-08-25T14:20:36;101371.38;;;36.69;22.59
72900;BME280;61043;52.036;5.566;2022-08-25T14:23:06;101365.50;;;36.60;22.73
72900;BME280;61043;52.036;5.566;2022-08-25T14:25:35;101368.06;;;36.72;22.66
72900;BME280;61043;52.036;5.566;2022-08-25T14:28:10;101364.81;;;36.85;22.02
72900;BME280;61043;52.036;5.566;2022-08-25T14:30:46;101359.56;;;36.84;22.81
72900;BME280;61043;52.036;5.566;2022-08-25T14:33:19;101353.25;;;36.93;22.01
72900;BME280;61043;52.036;5.566;2022-08-25T14:35:48;101361.03;;;37.02;22.13
72900;BME280;61043;52.036;5.566;2022-08-25T14:38:17;101359.50;;;37.31;23.43
72900;BME280;61043;52.036;5.566;2022-08-25T14:40:46;101353.94;;;37.16;21.92
72900;BME280;61043;52.036;5.566;2022-08-25T14:43:13;101345.81;;;36.94;22.03
72900;BME280;61043;52.036;5.566;2022-08-25T14:45:43;101352.38;;;36.78;22.28
72900;BME280;61043;52.036;5.566;2022-08-25T14:48:39;101340.25;;;36.89;22.31
72900;BME280;61043;52.036;5.566;2022-08-25T14:51:09;101341.78;;;37.17;23.52
72900;BME280;61043;52.036;5.566;2022-08-25T14:53:39;101339.28;;;37.10;22.04